HTIR/IRI METAR and TAF weather

Enter ICAO airport designator
Station Type Date Time Source
HTIR METAR 2022/08/16 17:00 UTC NOAA

HTIR 161700Z 18013KT 9999 FEW017 17/08 Q1021


Station Type Date Time Source
HTIR Decoded METAR 2022/08/16 17:00 UTC NOAA

Iringa, Tanzania (HTIR) 07-40S 035-45E 1428M
Aug 16, 2022 - 01:00 PM EDT / 2022.08.16 1700 UTC
Wind: from the S (180 degrees) at 15 MPH (13 KT):0
Visibility: greater than 7 mile(s):0
Sky conditions: mostly clear
Temperature: 62 F (17 C)
Dew Point: 46 F (8 C)
Relative Humidity: 55%
Pressure (altimeter): 30.15 in. Hg (1021 hPa)
ob: HTIR 161700Z 18013KT 9999 FEW017 17/08 Q1021
cycle: 17

Station Type Date Time Source
HTIR TAF UTC NOAA

Error!

Example: see airport list